Pocono Lake, Pennsylvania
Current Conditions -  °F | °C
As of 5:53 PM on Saturday 25 Oct 2014 (Local Time) from KMPO Reporting Station
Overcast Overcast  
Wind Chill: 15°   Ceiling: 6000
Heat Index: 15°   Visibility: 10mi
Dew Point:   Wind: 9mph
Humidity: 53%   Direction: 250°WSW
Pressure: 29.66"   Gusts: NA
Location:  41.09°N, 75.58°W
Report Text: KMPO 252153Z AUTO 25008KT 10SM OVC060 15/06 A2966 RMK AO2 SLP045 T01500056
Loading
Personal Weather Stations






























Interactive Weather Map New forecast layout! Learn more

10-Day Weather Forecast

Advertisements
Track Severe Weather on mobile